Canefield Airport

Fair and hazy with gusty winds
30oC (86oF)

Fair and hazy with gusty winds


Winds: Easterly @ 09kts / 17km/h

Humidity: 63%

Barometric Pressure: 1012 mb

Accumulated Rainfall for July: 34.1 mm

Updated: 18:00 local time (22:00 UTC)

Douglas-Charles Airport

Partly cloudy with slight haze
28oC (82oF)

Partly cloudy with slight haze


Winds: East south easterly @ 09kts / 17km/h

Humidity: 76%

Barometric Pressure: 1014 mb

Accumulated Rainfall for July: 45.2 mm

Updated: 18:00 local time (22:00 UTC)

Satellite Imagery

Satellite Imagery
Click image for larger view. (Source: National Hurricane Center).

Aviation Routine Report (METAR)

Douglas-Charles: METAR TDPD 082200Z 11009KT 9999 SCT017 28/24 Q1014=
Canefield: METAR TDCF 082200Z 10009KT 9999 FEW026 30/22 Q1012=